sensor_id;sensor_type;location;lat;lon;timestamp;pressure;altitude;pressure_sealevel;temperature;humidity
4586;BME280;2305;50.118;8.952;2023-01-05T00:01:41;100746.44;;;11.32;100.00
4586;BME280;2305;50.118;8.952;2023-01-05T00:04:10;100756.28;;;11.30;100.00
4586;BME280;2305;50.118;8.952;2023-01-05T00:06:38;100736.63;;;11.34;100.00
4586;BME280;2305;50.118;8.952;2023-01-05T00:09:07;100744.31;;;11.37;100.00
4586;BME280;2305;50.118;8.952;2023-01-05T00:11:36;100736.03;;;11.31;100.00
4586;BME280;2305;50.118;8.952;2023-01-05T00:14:25;100729.69;;;11.33;100.00
4586;BME280;2305;50.118;8.952;2023-01-05T00:17:13;100739.03;;;11.37;100.00
4586;BME280;2305;50.118;8.952;2023-01-05T00:19:59;100736.97;;;11.41;100.00
4586;BME280;2305;50.118;8.952;2023-01-05T00:22:47;100735.19;;;11.30;100.00
4586;BME280;2305;50.118;8.952;2023-01-05T00:25:17;100744.16;;;11.28;100.00
4586;BME280;2305;50.118;8.952;2023-01-05T00:27:47;100756.06;;;11.33;100.00
4586;BME280;2305;50.118;8.952;2023-01-05T00:30:20;100750.78;;;11.33;100.00
4586;BME280;2305;50.118;8.952;2023-01-05T00:32:49;100746.94;;;11.37;100.00
4586;BME280;2305;50.118;8.952;2023-01-05T00:35:18;100747.19;;;11.34;100.00
4586;BME280;2305;50.118;8.952;2023-01-05T00:37:47;100733.84;;;11.36;100.00
4586;BME280;2305;50.118;8.952;2023-01-05T00:40:17;100734.13;;;11.44;100.00
4586;BME280;2305;50.118;8.952;2023-01-05T00:42:45;100714.56;;;11.35;100.00
4586;BME280;2305;50.118;8.952;2023-01-05T00:45:15;100717.78;;;11.28;100.00
4586;BME280;2305;50.118;8.952;2023-01-05T00:47:45;100715.75;;;11.42;100.00
4586;BME280;2305;50.118;8.952;2023-01-05T00:50:15;100711.56;;;11.29;100.00
4586;BME280;2305;50.118;8.952;2023-01-05T00:52:44;100713.97;;;11.32;100.00
4586;BME280;2305;50.118;8.952;2023-01-05T00:55:13;100720.91;;;11.33;100.00
4586;BME280;2305;50.118;8.952;2023-01-05T00:57:43;100716.50;;;11.33;100.00
4586;BME280;2305;50.118;8.952;2023-01-05T01:00:14;100713.13;;;11.31;100.00
4586;BME280;2305;50.118;8.952;2023-01-05T01:02:43;100716.81;;;11.29;100.00
4586;BME280;2305;50.118;8.952;2023-01-05T01:05:13;100722.38;;;11.37;100.00
4586;BME280;2305;50.118;8.952;2023-01-05T01:07:41;100727.03;;;11.44;100.00
4586;BME280;2305;50.118;8.952;2023-01-05T01:10:10;100721.63;;;11.35;100.00
4586;BME280;2305;50.118;8.952;2023-01-05T01:12:38;100727.63;;;11.26;100.00
4586;BME280;2305;50.118;8.952;2023-01-05T01:15:07;100723.44;;;11.23;100.00
4586;BME280;2305;50.118;8.952;2023-01-05T01:17:35;100724.63;;;11.30;100.00
4586;BME280;2305;50.118;8.952;2023-01-05T01:20:04;100740.00;;;11.36;100.00
4586;BME280;2305;50.118;8.952;2023-01-05T01:22:34;100741.91;;;11.34;100.00
4586;BME280;2305;50.118;8.952;2023-01-05T01:25:02;100734.09;;;11.33;100.00
4586;BME280;2305;50.118;8.952;2023-01-05T01:27:31;100737.59;;;11.33;100.00
4586;BME280;2305;50.118;8.952;2023-01-05T01:29:59;100747.53;;;11.41;100.00
4586;BME280;2305;50.118;8.952;2023-01-05T01:32:28;100738.06;;;11.49;100.00
4586;BME280;2305;50.118;8.952;2023-01-05T01:34:56;100755.56;;;11.39;100.00
4586;BME280;2305;50.118;8.952;2023-01-05T01:37:24;100750.28;;;11.39;100.00
4586;BME280;2305;50.118;8.952;2023-01-05T01:39:55;100743.59;;;11.35;100.00
4586;BME280;2305;50.118;8.952;2023-01-05T01:42:24;100754.25;;;11.34;100.00
4586;BME280;2305;50.118;8.952;2023-01-05T01:44:57;100752.56;;;11.33;100.00
4586;BME280;2305;50.118;8.952;2023-01-05T01:47:35;100750.44;;;11.38;100.00
4586;BME280;2305;50.118;8.952;2023-01-05T01:50:09;100741.78;;;11.36;100.00
4586;BME280;2305;50.118;8.952;2023-01-05T01:52:42;100745.50;;;11.33;100.00
4586;BME280;2305;50.118;8.952;2023-01-05T01:55:12;100742.13;;;11.31;100.00
4586;BME280;2305;50.118;8.952;2023-01-05T01:57:42;100746.81;;;11.50;100.00
4586;BME280;2305;50.118;8.952;2023-01-05T02:00:12;100747.19;;;11.45;100.00
4586;BME280;2305;50.118;8.952;2023-01-05T02:02:45;100746.72;;;11.40;100.00
4586;BME280;2305;50.118;8.952;2023-01-05T02:05:19;100748.38;;;11.30;100.00
4586;BME280;2305;50.118;8.952;2023-01-05T02:07:49;100755.47;;;11.30;100.00
4586;BME280;2305;50.118;8.952;2023-01-05T02:10:31;100751.00;;;11.30;100.00
4586;BME280;2305;50.118;8.952;2023-01-05T02:13:24;100749.22;;;11.31;100.00
4586;BME280;2305;50.118;8.952;2023-01-05T02:16:06;100746.69;;;11.29;100.00
4586;BME280;2305;50.118;8.952;2023-01-05T02:18:46;100739.38;;;11.33;100.00
4586;BME280;2305;50.118;8.952;2023-01-05T02:21:22;100735.69;;;11.35;100.00
4586;BME280;2305;50.118;8.952;2023-01-05T02:24:27;100734.38;;;11.30;100.00
4586;BME280;2305;50.118;8.952;2023-01-05T02:30:48;100735.06;;;11.32;100.00
4586;BME280;2305;50.118;8.952;2023-01-05T02:33:46;100734.59;;;11.38;100.00
4586;BME280;2305;50.118;8.952;2023-01-05T02:36:27;100732.19;;;11.35;100.00
4586;BME280;2305;50.118;8.952;2023-01-05T02:39:06;100722.84;;;11.31;100.00
4586;BME280;2305;50.118;8.952;2023-01-05T02:41:43;100720.56;;;11.37;100.00
4586;BME280;2305;50.118;8.952;2023-01-05T02:44:14;100711.94;;;11.35;100.00
4586;BME280;2305;50.118;8.952;2023-01-05T02:46:46;100719.13;;;11.33;100.00
4586;BME280;2305;50.118;8.952;2023-01-05T02:49:16;100730.88;;;11.40;100.00
4586;BME280;2305;50.118;8.952;2023-01-05T02:51:48;100728.84;;;11.44;100.00
4586;BME280;2305;50.118;8.952;2023-01-05T02:54:20;100718.16;;;11.45;100.00
4586;BME280;2305;50.118;8.952;2023-01-05T02:56:54;100730.16;;;11.49;100.00
4586;BME280;2305;50.118;8.952;2023-01-05T02:59:27;100734.47;;;11.39;100.00
4586;BME280;2305;50.118;8.952;2023-01-05T03:02:02;100729.44;;;11.36;100.00
4586;BME280;2305;50.118;8.952;2023-01-05T03:04:33;100735.91;;;11.32;100.00
4586;BME280;2305;50.118;8.952;2023-01-05T03:07:12;100753.66;;;11.41;100.00
4586;BME280;2305;50.118;8.952;2023-01-05T03:09:42;100736.03;;;11.31;100.00
4586;BME280;2305;50.118;8.952;2023-01-05T03:12:20;100730.97;;;11.28;100.00
4586;BME280;2305;50.118;8.952;2023-01-05T03:15:14;100737.81;;;11.30;100.00
4586;BME280;2305;50.118;8.952;2023-01-05T03:17:50;100739.97;;;11.25;100.00
4586;BME280;2305;50.118;8.952;2023-01-05T03:20:21;100745.13;;;11.27;100.00
4586;BME280;2305;50.118;8.952;2023-01-05T03:22:54;100753.91;;;11.27;100.00
4586;BME280;2305;50.118;8.952;2023-01-05T03:25:42;100767.44;;;11.34;100.00
4586;BME280;2305;50.118;8.952;2023-01-05T03:28:35;100756.16;;;11.43;100.00
4586;BME280;2305;50.118;8.952;2023-01-05T03:31:33;100763.47;;;11.39;100.00
4586;BME280;2305;50.118;8.952;2023-01-05T03:34:26;100743.34;;;11.49;100.00
4586;BME280;2305;50.118;8.952;2023-01-05T03:37:23;100743.72;;;11.45;100.00
4586;BME280;2305;50.118;8.952;2023-01-05T03:39:53;100750.56;;;11.47;100.00
4586;BME280;2305;50.118;8.952;2023-01-05T03:42:23;100746.22;;;11.57;100.00
4586;BME280;2305;50.118;8.952;2023-01-05T03:44:51;100752.47;;;11.56;100.00
4586;BME280;2305;50.118;8.952;2023-01-05T03:47:22;100758.22;;;11.61;100.00
4586;BME280;2305;50.118;8.952;2023-01-05T03:49:52;100753.22;;;11.69;100.00
4586;BME280;2305;50.118;8.952;2023-01-05T03:52:20;100745.88;;;11.73;100.00
4586;BME280;2305;50.118;8.952;2023-01-05T03:54:49;100747.19;;;11.67;100.00
4586;BME280;2305;50.118;8.952;2023-01-05T03:57:17;100756.34;;;11.63;100.00
4586;BME280;2305;50.118;8.952;2023-01-05T03:59:46;100758.00;;;11.64;100.00
4586;BME280;2305;50.118;8.952;2023-01-05T04:02:15;100760.41;;;11.78;100.00
4586;BME280;2305;50.118;8.952;2023-01-05T04:04:44;100759.31;;;11.70;100.00
4586;BME280;2305;50.118;8.952;2023-01-05T04:07:13;100754.88;;;11.70;100.00
4586;BME280;2305;50.118;8.952;2023-01-05T04:09:41;100770.72;;;11.70;100.00
4586;BME280;2305;50.118;8.952;2023-01-05T04:12:09;100768.44;;;11.77;100.00
4586;BME280;2305;50.118;8.952;2023-01-05T04:14:41;100776.22;;;11.78;100.00
4586;BME280;2305;50.118;8.952;2023-01-05T04:17:10;100765.06;;;11.75;100.00
4586;BME280;2305;50.118;8.952;2023-01-05T04:19:41;100758.50;;;11.69;100.00
4586;BME280;2305;50.118;8.952;2023-01-05T04:22:13;100766.75;;;11.76;100.00
4586;BME280;2305;50.118;8.952;2023-01-05T04:24:45;100768.06;;;11.81;100.00
4586;BME280;2305;50.118;8.952;2023-01-05T04:27:17;100770.00;;;11.79;100.00
4586;BME280;2305;50.118;8.952;2023-01-05T04:29:46;100774.56;;;11.66;100.00
4586;BME280;2305;50.118;8.952;2023-01-05T04:32:14;100782.34;;;11.79;100.00
4586;BME280;2305;50.118;8.952;2023-01-05T04:34:43;100782.22;;;11.80;100.00
4586;BME280;2305;50.118;8.952;2023-01-05T04:37:11;100783.91;;;11.81;100.00
4586;BME280;2305;50.118;8.952;2023-01-05T04:39:41;100779.63;;;11.69;100.00
4586;BME280;2305;50.118;8.952;2023-01-05T04:42:12;100782.97;;;11.71;100.00
4586;BME280;2305;50.118;8.952;2023-01-05T04:44:42;100779.13;;;11.64;100.00
4586;BME280;2305;50.118;8.952;2023-01-05T04:47:10;100785.38;;;11.63;100.00
4586;BME280;2305;50.118;8.952;2023-01-05T04:49:40;100786.44;;;11.61;100.00
4586;BME280;2305;50.118;8.952;2023-01-05T04:52:09;100780.75;;;11.54;100.00
4586;BME280;2305;50.118;8.952;2023-01-05T04:54:37;100788.13;;;11.62;100.00
4586;BME280;2305;50.118;8.952;2023-01-05T04:57:08;100795.66;;;11.55;100.00
4586;BME280;2305;50.118;8.952;2023-01-05T04:59:38;100787.72;;;11.44;100.00
4586;BME280;2305;50.118;8.952;2023-01-05T05:02:07;100801.41;;;11.49;100.00
4586;BME280;2305;50.118;8.952;2023-01-05T05:04:38;100800.09;;;11.44;100.00
4586;BME280;2305;50.118;8.952;2023-01-05T05:07:07;100811.00;;;11.50;100.00
4586;BME280;2305;50.118;8.952;2023-01-05T05:09:37;100814.13;;;11.55;100.00
4586;BME280;2305;50.118;8.952;2023-01-05T05:12:05;100820.03;;;11.59;100.00
4586;BME280;2305;50.118;8.952;2023-01-05T05:14:38;100821.72;;;11.60;100.00
4586;BME280;2305;50.118;8.952;2023-01-05T05:17:06;100831.41;;;11.59;100.00
4586;BME280;2305;50.118;8.952;2023-01-05T05:19:35;100842.56;;;11.52;100.00
4586;BME280;2305;50.118;8.952;2023-01-05T05:22:03;100848.41;;;11.44;100.00
4586;BME280;2305;50.118;8.952;2023-01-05T05:24:31;100843.88;;;11.57;100.00
4586;BME280;2305;50.118;8.952;2023-01-05T05:27:00;100838.00;;;11.54;100.00
4586;BME280;2305;50.118;8.952;2023-01-05T05:29:28;100828.75;;;11.48;100.00
4586;BME280;2305;50.118;8.952;2023-01-05T05:32:01;100839.88;;;11.41;100.00
4586;BME280;2305;50.118;8.952;2023-01-05T05:34:29;100835.09;;;11.46;100.00
4586;BME280;2305;50.118;8.952;2023-01-05T05:36:57;100841.72;;;11.40;100.00
4586;BME280;2305;50.118;8.952;2023-01-05T05:39:25;100839.53;;;11.34;100.00
4586;BME280;2305;50.118;8.952;2023-01-05T05:41:53;100835.72;;;11.49;100.00
4586;BME280;2305;50.118;8.952;2023-01-05T05:44:22;100832.69;;;11.32;100.00
4586;BME280;2305;50.118;8.952;2023-01-05T05:46:52;100845.66;;;11.46;100.00
4586;BME280;2305;50.118;8.952;2023-01-05T05:49:21;100845.31;;;11.50;100.00
4586;BME280;2305;50.118;8.952;2023-01-05T05:51:49;100835.69;;;11.38;100.00
4586;BME280;2305;50.118;8.952;2023-01-05T05:54:20;100841.56;;;11.42;100.00
4586;BME280;2305;50.118;8.952;2023-01-05T05:56:48;100858.09;;;11.33;100.00
4586;BME280;2305;50.118;8.952;2023-01-05T05:59:17;100834.97;;;11.36;100.00
4586;BME280;2305;50.118;8.952;2023-01-05T06:01:44;100836.44;;;11.40;100.00
4586;BME280;2305;50.118;8.952;2023-01-05T06:04:15;100844.41;;;11.28;100.00
4586;BME280;2305;50.118;8.952;2023-01-05T06:06:45;100850.34;;;11.42;100.00
4586;BME280;2305;50.118;8.952;2023-01-05T06:09:13;100849.34;;;11.32;100.00
4586;BME280;2305;50.118;8.952;2023-01-05T06:11:41;100863.03;;;11.37;100.00
4586;BME280;2305;50.118;8.952;2023-01-05T06:14:09;100869.00;;;11.28;100.00
4586;BME280;2305;50.118;8.952;2023-01-05T06:16:37;100865.88;;;11.23;100.00
4586;BME280;2305;50.118;8.952;2023-01-05T06:19:05;100872.88;;;11.46;100.00
4586;BME280;2305;50.118;8.952;2023-01-05T06:21:37;100878.34;;;11.32;100.00
4586;BME280;2305;50.118;8.952;2023-01-05T06:24:10;100870.78;;;11.28;100.00
4586;BME280;2305;50.118;8.952;2023-01-05T06:26:38;100879.06;;;11.23;100.00
4586;BME280;2305;50.118;8.952;2023-01-05T06:29:06;100873.06;;;11.21;100.00
4586;BME280;2305;50.118;8.952;2023-01-05T06:31:37;100884.00;;;11.28;100.00
4586;BME280;2305;50.118;8.952;2023-01-05T06:34:05;100883.88;;;11.29;100.00
4586;BME280;2305;50.118;8.952;2023-01-05T06:36:36;100867.22;;;11.40;100.00
4586;BME280;2305;50.118;8.952;2023-01-05T06:39:03;100867.69;;;11.34;100.00
4586;BME280;2305;50.118;8.952;2023-01-05T06:41:33;100864.44;;;11.30;100.00
4586;BME280;2305;50.118;8.952;2023-01-05T06:44:01;100880.38;;;11.29;100.00
4586;BME280;2305;50.118;8.952;2023-01-05T06:46:31;100877.19;;;11.36;100.00
4586;BME280;2305;50.118;8.952;2023-01-05T06:48:59;100881.00;;;11.32;100.00
4586;BME280;2305;50.118;8.952;2023-01-05T06:51:29;100879.47;;;11.30;100.00
4586;BME280;2305;50.118;8.952;2023-01-05T06:53:58;100882.69;;;11.33;100.00
4586;BME280;2305;50.118;8.952;2023-01-05T06:56:29;100883.63;;;11.32;100.00
4586;BME280;2305;50.118;8.952;2023-01-05T06:58:58;100890.94;;;11.29;100.00
4586;BME280;2305;50.118;8.952;2023-01-05T07:01:26;100877.06;;;11.38;100.00
4586;BME280;2305;50.118;8.952;2023-01-05T07:03:54;100888.25;;;11.41;100.00
4586;BME280;2305;50.118;8.952;2023-01-05T07:06:22;100889.41;;;11.37;100.00
4586;BME280;2305;50.118;8.952;2023-01-05T07:08:50;100892.41;;;11.33;100.00
4586;BME280;2305;50.118;8.952;2023-01-05T07:11:19;100904.19;;;11.40;100.00
4586;BME280;2305;50.118;8.952;2023-01-05T07:13:47;100889.78;;;11.33;100.00
4586;BME280;2305;50.118;8.952;2023-01-05T07:16:17;100899.75;;;11.40;100.00
4586;BME280;2305;50.118;8.952;2023-01-05T07:18:45;100898.78;;;11.41;100.00
4586;BME280;2305;50.118;8.952;2023-01-05T07:21:13;100907.66;;;11.40;100.00
4586;BME280;2305;50.118;8.952;2023-01-05T07:23:41;100908.03;;;11.47;100.00
4586;BME280;2305;50.118;8.952;2023-01-05T07:26:09;100909.69;;;11.37;100.00
4586;BME280;2305;50.118;8.952;2023-01-05T07:28:37;100914.78;;;11.51;100.00
4586;BME280;2305;50.118;8.952;2023-01-05T07:31:06;100917.63;;;11.48;100.00
4586;BME280;2305;50.118;8.952;2023-01-05T07:33:36;100925.91;;;11.43;100.00
4586;BME280;2305;50.118;8.952;2023-01-05T07:36:06;100926.03;;;11.53;100.00
4586;BME280;2305;50.118;8.952;2023-01-05T07:38:35;100930.22;;;11.44;100.00
4586;BME280;2305;50.118;8.952;2023-01-05T07:41:03;100932.16;;;11.53;100.00
4586;BME280;2305;50.118;8.952;2023-01-05T07:43:33;100926.75;;;11.55;100.00
4586;BME280;2305;50.118;8.952;2023-01-05T07:46:03;100927.00;;;11.52;100.00
4586;BME280;2305;50.118;8.952;2023-01-05T07:48:31;100942.34;;;11.47;100.00
4586;BME280;2305;50.118;8.952;2023-01-05T07:51:02;100932.16;;;11.53;100.00
4586;BME280;2305;50.118;8.952;2023-01-05T07:53:32;100944.16;;;11.57;100.00
4586;BME280;2305;50.118;8.952;2023-01-05T07:56:10;100953.88;;;11.57;100.00
4586;BME280;2305;50.118;8.952;2023-01-05T07:58:42;100962.84;;;11.54;100.00
4586;BME280;2305;50.118;8.952;2023-01-05T08:01:11;100939.34;;;11.51;100.00
4586;BME280;2305;50.118;8.952;2023-01-05T08:03:40;100958.78;;;11.50;100.00
4586;BME280;2305;50.118;8.952;2023-01-05T08:06:11;100961.06;;;11.55;100.00
4586;BME280;2305;50.118;8.952;2023-01-05T08:08:39;100965.50;;;11.54;100.00
4586;BME280;2305;50.118;8.952;2023-01-05T08:11:09;100975.34;;;11.52;100.00
4586;BME280;2305;50.118;8.952;2023-01-05T08:13:40;100986.19;;;11.60;100.00
4586;BME280;2305;50.118;8.952;2023-01-05T08:16:30;100996.19;;;11.68;100.00
4586;BME280;2305;50.118;8.952;2023-01-05T08:18:59;100988.88;;;11.71;100.00
4586;BME280;2305;50.118;8.952;2023-01-05T08:21:33;100997.41;;;11.75;100.00
4586;BME280;2305;50.118;8.952;2023-01-05T08:24:01;101004.81;;;11.70;100.00
4586;BME280;2305;50.118;8.952;2023-01-05T08:26:32;100996.44;;;11.76;100.00
4586;BME280;2305;50.118;8.952;2023-01-05T08:29:00;100976.13;;;11.65;100.00
4586;BME280;2305;50.118;8.952;2023-01-05T08:31:30;100991.59;;;11.59;100.00
4586;BME280;2305;50.118;8.952;2023-01-05T08:34:05;101005.16;;;11.65;100.00
4586;BME280;2305;50.118;8.952;2023-01-05T08:36:35;101003.38;;;11.66;100.00
4586;BME280;2305;50.118;8.952;2023-01-05T08:39:08;101011.22;;;11.78;100.00
4586;BME280;2305;50.118;8.952;2023-01-05T08:41:38;100996.53;;;11.63;100.00
4586;BME280;2305;50.118;8.952;2023-01-05T08:44:10;101004.59;;;11.73;100.00
4586;BME280;2305;50.118;8.952;2023-01-05T08:46:39;101001.81;;;11.74;100.00
4586;BME280;2305;50.118;8.952;2023-01-05T08:49:08;101002.34;;;11.79;100.00
4586;BME280;2305;50.118;8.952;2023-01-05T08:51:38;101010.97;;;11.81;100.00
4586;BME280;2305;50.118;8.952;2023-01-05T08:54:08;101010.72;;;11.73;100.00
4586;BME280;2305;50.118;8.952;2023-01-05T08:56:37;101016.59;;;11.77;100.00
4586;BME280;2305;50.118;8.952;2023-01-05T08:59:11;101020.31;;;11.74;100.00
4586;BME280;2305;50.118;8.952;2023-01-05T09:01:39;101019.03;;;11.80;100.00
4586;BME280;2305;50.118;8.952;2023-01-05T09:04:08;101021.88;;;11.77;100.00
4586;BME280;2305;50.118;8.952;2023-01-05T09:06:40;101032.94;;;11.82;100.00
4586;BME280;2305;50.118;8.952;2023-01-05T09:09:08;101030.88;;;11.74;100.00
4586;BME280;2305;50.118;8.952;2023-01-05T09:11:36;101034.53;;;11.84;100.00
4586;BME280;2305;50.118;8.952;2023-01-05T09:14:05;101029.25;;;11.84;100.00
4586;BME280;2305;50.118;8.952;2023-01-05T09:16:33;101032.66;;;11.97;100.00
4586;BME280;2305;50.118;8.952;2023-01-05T09:19:21;101035.13;;;11.88;100.00
4586;BME280;2305;50.118;8.952;2023-01-05T09:21:51;101039.72;;;11.97;100.00
4586;BME280;2305;50.118;8.952;2023-01-05T09:24:21;101036.72;;;12.01;100.00
4586;BME280;2305;50.118;8.952;2023-01-05T09:26:50;101046.31;;;11.91;100.00
4586;BME280;2305;50.118;8.952;2023-01-05T09:29:18;101055.84;;;11.81;100.00
4586;BME280;2305;50.118;8.952;2023-01-05T09:31:48;101060.19;;;11.82;100.00
4586;BME280;2305;50.118;8.952;2023-01-05T09:34:19;101060.94;;;11.84;100.00
4586;BME280;2305;50.118;8.952;2023-01-05T09:36:47;101061.81;;;11.96;100.00
4586;BME280;2305;50.118;8.952;2023-01-05T09:39:19;101062.88;;;11.93;100.00
4586;BME280;2305;50.118;8.952;2023-01-05T09:41:49;101059.06;;;11.97;100.00
4586;BME280;2305;50.118;8.952;2023-01-05T09:44:27;101070.34;;;11.99;100.00
4586;BME280;2305;50.118;8.952;2023-01-05T09:47:02;101074.28;;;11.94;100.00
4586;BME280;2305;50.118;8.952;2023-01-05T09:49:32;101073.81;;;12.00;100.00
4586;BME280;2305;50.118;8.952;2023-01-05T09:52:05;101069.84;;;11.94;100.00
4586;BME280;2305;50.118;8.952;2023-01-05T09:54:39;101076.31;;;11.90;100.00
4586;BME280;2305;50.118;8.952;2023-01-05T09:57:14;101080.50;;;11.93;100.00
4586;BME280;2305;50.118;8.952;2023-01-05T09:59:45;101075.47;;;11.90;100.00
4586;BME280;2305;50.118;8.952;2023-01-05T10:02:20;101085.69;;;11.94;100.00
4586;BME280;2305;50.118;8.952;2023-01-05T10:04:53;101071.50;;;11.95;100.00
4586;BME280;2305;50.118;8.952;2023-01-05T10:07:39;101076.13;;;12.04;100.00
4586;BME280;2305;50.118;8.952;2023-01-05T10:10:19;101075.16;;;12.05;100.00
4586;BME280;2305;50.118;8.952;2023-01-05T10:12:58;101079.22;;;11.98;100.00
4586;BME280;2305;50.118;8.952;2023-01-05T10:15:35;101078.75;;;12.04;100.00
4586;BME280;2305;50.118;8.952;2023-01-05T10:18:12;101086.44;;;12.07;100.00
4586;BME280;2305;50.118;8.952;2023-01-05T10:20:55;101080.69;;;12.13;100.00
4586;BME280;2305;50.118;8.952;2023-01-05T10:23:39;101081.66;;;12.12;100.00
4586;BME280;2305;50.118;8.952;2023-01-05T10:26:18;101086.59;;;12.17;100.00
4586;BME280;2305;50.118;8.952;2023-01-05T10:28:51;101099.09;;;12.15;100.00
4586;BME280;2305;50.118;8.952;2023-01-05T10:31:25;101083.56;;;12.10;100.00
4586;BME280;2305;50.118;8.952;2023-01-05T10:34:03;101088.53;;;12.15;100.00
4586;BME280;2305;50.118;8.952;2023-01-05T10:36:54;101094.06;;;12.23;100.00
4586;BME280;2305;50.118;8.952;2023-01-05T10:39:50;101100.56;;;12.30;100.00
4586;BME280;2305;50.118;8.952;2023-01-05T10:42:33;101084.56;;;12.31;100.00
4586;BME280;2305;50.118;8.952;2023-01-05T10:45:09;101103.94;;;12.43;100.00
4586;BME280;2305;50.118;8.952;2023-01-05T10:47:44;101090.84;;;12.52;100.00
4586;BME280;2305;50.118;8.952;2023-01-05T10:50:35;101097.34;;;12.59;100.00
4586;BME280;2305;50.118;8.952;2023-01-05T10:53:09;101103.84;;;12.55;100.00
4586;BME280;2305;50.118;8.952;2023-01-05T10:55:44;101099.28;;;12.57;100.00
4586;BME280;2305;50.118;8.952;2023-01-05T10:58:24;101096.38;;;12.60;100.00
4586;BME280;2305;50.118;8.952;2023-01-05T11:00:54;101102.66;;;12.70;100.00
4586;BME280;2305;50.118;8.952;2023-01-05T11:03:28;101111.09;;;12.75;100.00
4586;BME280;2305;50.118;8.952;2023-01-05T11:06:19;101099.03;;;12.71;100.00
4586;BME280;2305;50.118;8.952;2023-01-05T11:08:48;101106.41;;;12.79;100.00
4586;BME280;2305;50.118;8.952;2023-01-05T11:11:21;101106.63;;;12.76;100.00
4586;BME280;2305;50.118;8.952;2023-01-05T11:13:56;101084.13;;;12.81;100.00
4586;BME280;2305;50.118;8.952;2023-01-05T11:16:25;101104.81;;;12.87;100.00
4586;BME280;2305;50.118;8.952;2023-01-05T11:18:56;101092.78;;;12.94;100.00
4586;BME280;2305;50.118;8.952;2023-01-05T11:21:27;101098.81;;;12.96;100.00
4586;BME280;2305;50.118;8.952;2023-01-05T11:24:26;101101.09;;;12.90;100.00
4586;BME280;2305;50.118;8.952;2023-01-05T11:26:55;101109.03;;;12.90;100.00
4586;BME280;2305;50.118;8.952;2023-01-05T11:29:26;101109.63;;;12.82;100.00
4586;BME280;2305;50.118;8.952;2023-01-05T11:31:57;101104.47;;;12.81;100.00
4586;BME280;2305;50.118;8.952;2023-01-05T11:34:37;101116.59;;;12.94;100.00
4586;BME280;2305;50.118;8.952;2023-01-05T11:37:21;101123.59;;;12.84;100.00
4586;BME280;2305;50.118;8.952;2023-01-05T11:39:53;101117.31;;;12.85;100.00
4586;BME280;2305;50.118;8.952;2023-01-05T11:42:29;101108.91;;;12.80;100.00
4586;BME280;2305;50.118;8.952;2023-01-05T11:45:05;101106.13;;;12.82;100.00
4586;BME280;2305;50.118;8.952;2023-01-05T11:47:36;101109.50;;;12.84;100.00
4586;BME280;2305;50.118;8.952;2023-01-05T11:50:17;101119.72;;;12.88;100.00
4586;BME280;2305;50.118;8.952;2023-01-05T11:52:49;101111.19;;;12.74;100.00
4586;BME280;2305;50.118;8.952;2023-01-05T11:55:35;101108.91;;;12.80;100.00
4586;BME280;2305;50.118;8.952;2023-01-05T11:58:21;101105.19;;;12.94;100.00
4586;BME280;2305;50.118;8.952;2023-01-05T12:04:00;101094.13;;;12.89;100.00
4586;BME280;2305;50.118;8.952;2023-01-05T12:06:50;101116.47;;;12.85;100.00
4586;BME280;2305;50.118;8.952;2023-01-05T12:09:24;101105.78;;;12.86;100.00
4586;BME280;2305;50.118;8.952;2023-01-05T12:12:15;101109.63;;;12.93;100.00
4586;BME280;2305;50.118;8.952;2023-01-05T12:15:00;101096.19;;;12.96;100.00
4586;BME280;2305;50.118;8.952;2023-01-05T12:17:41;101094.72;;;13.14;100.00
4586;BME280;2305;50.118;8.952;2023-01-05T12:20:30;101085.22;;;13.23;100.00
4586;BME280;2305;50.118;8.952;2023-01-05T12:23:22;101095.78;;;13.34;100.00
4586;BME280;2305;50.118;8.952;2023-01-05T12:26:19;101087.94;;;13.43;100.00
4586;BME280;2305;50.118;8.952;2023-01-05T12:29:03;101071.63;;;13.27;100.00
4586;BME280;2305;50.118;8.952;2023-01-05T12:32:06;101087.50;;;13.16;100.00
4586;BME280;2305;50.118;8.952;2023-01-05T12:38:10;101094.81;;;13.35;100.00
4586;BME280;2305;50.118;8.952;2023-01-05T12:40:51;101107.31;;;13.33;100.00
4586;BME280;2305;50.118;8.952;2023-01-05T12:43:35;101098.09;;;13.27;100.00
4586;BME280;2305;50.118;8.952;2023-01-05T12:46:25;101105.16;;;13.27;100.00
4586;BME280;2305;50.118;8.952;2023-01-05T12:49:00;101094.47;;;13.17;100.00
4586;BME280;2305;50.118;8.952;2023-01-05T12:51:35;101098.22;;;13.15;100.00
4586;BME280;2305;50.118;8.952;2023-01-05T12:54:15;101099.91;;;13.16;100.00
4586;BME280;2305;50.118;8.952;2023-01-05T12:56:50;101099.28;;;13.23;100.00
4586;BME280;2305;50.118;8.952;2023-01-05T12:59:23;101105.53;;;13.22;100.00
4586;BME280;2305;50.118;8.952;2023-01-05T13:02:02;101104.19;;;13.28;100.00
4586;BME280;2305;50.118;8.952;2023-01-05T13:04:37;101106.25;;;13.35;100.00
4586;BME280;2305;50.118;8.952;2023-01-05T13:07:19;101107.91;;;13.47;100.00
4586;BME280;2305;50.118;8.952;2023-01-05T13:09:56;101095.59;;;13.57;100.00
4586;BME280;2305;50.118;8.952;2023-01-05T13:12:30;101103.22;;;13.51;100.00
4586;BME280;2305;50.118;8.952;2023-01-05T13:15:17;101102.03;;;13.44;100.00
4586;BME280;2305;50.118;8.952;2023-01-05T13:17:50;101104.31;;;13.37;100.00
4586;BME280;2305;50.118;8.952;2023-01-05T13:20:26;101109.00;;;13.34;100.00
4586;BME280;2305;50.118;8.952;2023-01-05T13:23:00;101107.66;;;13.50;100.00
4586;BME280;2305;50.118;8.952;2023-01-05T13:25:37;101106.59;;;13.84;100.00
4586;BME280;2305;50.118;8.952;2023-01-05T13:28:16;101111.88;;;14.56;100.00
4586;BME280;2305;50.118;8.952;2023-01-05T13:36:52;101095.16;;;14.35;100.00
4586;BME280;2305;50.118;8.952;2023-01-05T13:39:46;101112.19;;;14.22;100.00
4586;BME280;2305;50.118;8.952;2023-01-05T13:42:34;101111.47;;;13.99;100.00
4586;BME280;2305;50.118;8.952;2023-01-05T13:45:46;101115.34;;;13.84;100.00
4586;BME280;2305;50.118;8.952;2023-01-05T13:48:34;101112.69;;;13.84;100.00
4586;BME280;2305;50.118;8.952;2023-01-05T13:51:51;101113.53;;;13.96;100.00